sensor_id;sensor_type;location;lat;lon;timestamp;P1;durP1;ratioP1;P2;durP2;ratioP2
80823;SDS011;70538;59.122;37.876;2023-06-24T00:00:35;9.93;;;4.40;;
80823;SDS011;70538;59.122;37.876;2023-06-24T00:03:06;10.03;;;3.90;;
80823;SDS011;70538;59.122;37.876;2023-06-24T00:05:36;12.30;;;4.22;;
80823;SDS011;70538;59.122;37.876;2023-06-24T00:08:08;11.13;;;4.40;;
80823;SDS011;70538;59.122;37.876;2023-06-24T00:10:37;9.75;;;4.65;;
80823;SDS011;70538;59.122;37.876;2023-06-24T00:13:05;10.30;;;4.78;;
80823;SDS011;70538;59.122;37.876;2023-06-24T00:15:40;11.27;;;4.83;;
80823;SDS011;70538;59.122;37.876;2023-06-24T00:18:10;10.15;;;4.90;;
80823;SDS011;70538;59.122;37.876;2023-06-24T00:20:39;10.82;;;4.38;;
80823;SDS011;70538;59.122;37.876;2023-06-24T00:23:12;13.65;;;4.53;;
80823;SDS011;70538;59.122;37.876;2023-06-24T00:25:48;10.10;;;4.63;;
80823;SDS011;70538;59.122;37.876;2023-06-24T00:28:17;9.60;;;4.40;;
80823;SDS011;70538;59.122;37.876;2023-06-24T00:30:46;10.18;;;4.22;;
80823;SDS011;70538;59.122;37.876;2023-06-24T00:33:15;10.60;;;3.85;;
80823;SDS011;70538;59.122;37.876;2023-06-24T00:35:48;11.40;;;4.07;;
80823;SDS011;70538;59.122;37.876;2023-06-24T00:38:16;8.75;;;3.92;;
80823;SDS011;70538;59.122;37.876;2023-06-24T00:40:44;11.27;;;4.40;;
80823;SDS011;70538;59.122;37.876;2023-06-24T00:43:14;11.85;;;4.43;;
80823;SDS011;70538;59.122;37.876;2023-06-24T00:45:42;9.50;;;4.43;;
80823;SDS011;70538;59.122;37.876;2023-06-24T00:48:12;9.75;;;4.07;;
80823;SDS011;70538;59.122;37.876;2023-06-24T00:50:41;10.43;;;3.95;;
80823;SDS011;70538;59.122;37.876;2023-06-24T00:53:13;10.53;;;4.70;;
80823;SDS011;70538;59.122;37.876;2023-06-24T00:55:42;14.68;;;6.15;;
80823;SDS011;70538;59.122;37.876;2023-06-24T00:58:13;16.00;;;5.80;;
80823;SDS011;70538;59.122;37.876;2023-06-24T01:00:44;12.70;;;5.60;;
80823;SDS011;70538;59.122;37.876;2023-06-24T01:03:14;14.93;;;5.85;;
80823;SDS011;70538;59.122;37.876;2023-06-24T01:05:45;17.03;;;5.20;;
80823;SDS011;70538;59.122;37.876;2023-06-24T01:08:14;10.93;;;4.65;;
80823;SDS011;70538;59.122;37.876;2023-06-24T01:10:43;9.85;;;4.20;;
80823;SDS011;70538;59.122;37.876;2023-06-24T01:13:11;10.10;;;4.45;;
80823;SDS011;70538;59.122;37.876;2023-06-24T01:15:40;11.00;;;4.53;;
80823;SDS011;70538;59.122;37.876;2023-06-24T01:18:10;9.20;;;4.40;;
80823;SDS011;70538;59.122;37.876;2023-06-24T01:32:19;11.77;;;3.90;;
80823;SDS011;70538;59.122;37.876;2023-06-24T01:34:58;9.45;;;3.78;;
80823;SDS011;70538;59.122;37.876;2023-06-24T01:37:35;8.60;;;4.13;;
80823;SDS011;70538;59.122;37.876;2023-06-24T01:40:18;11.93;;;4.63;;
80823;SDS011;70538;59.122;37.876;2023-06-24T01:42:53;9.43;;;3.90;;
80823;SDS011;70538;59.122;37.876;2023-06-24T01:45:26;9.27;;;3.77;;
80823;SDS011;70538;59.122;37.876;2023-06-24T01:48:04;11.52;;;4.22;;
80823;SDS011;70538;59.122;37.876;2023-06-24T01:50:39;12.23;;;4.40;;
80823;SDS011;70538;59.122;37.876;2023-06-24T01:53:32;9.73;;;3.50;;
80823;SDS011;70538;59.122;37.876;2023-06-24T01:56:02;8.20;;;3.65;;
80823;SDS011;70538;59.122;37.876;2023-06-24T01:58:33;9.57;;;3.80;;
80823;SDS011;70538;59.122;37.876;2023-06-24T02:01:04;7.93;;;3.63;;
80823;SDS011;70538;59.122;37.876;2023-06-24T02:03:33;8.18;;;3.58;;
80823;SDS011;70538;59.122;37.876;2023-06-24T02:06:02;9.90;;;3.38;;
80823;SDS011;70538;59.122;37.876;2023-06-24T02:08:33;9.40;;;3.42;;
80823;SDS011;70538;59.122;37.876;2023-06-24T02:11:04;11.47;;;3.70;;
80823;SDS011;70538;59.122;37.876;2023-06-24T02:13:34;9.57;;;3.72;;
80823;SDS011;70538;59.122;37.876;2023-06-24T02:16:04;9.20;;;4.07;;
80823;SDS011;70538;59.122;37.876;2023-06-24T02:18:37;9.70;;;4.20;;
80823;SDS011;70538;59.122;37.876;2023-06-24T02:21:10;10.82;;;4.35;;
80823;SDS011;70538;59.122;37.876;2023-06-24T02:23:40;13.07;;;5.20;;
80823;SDS011;70538;59.122;37.876;2023-06-24T02:26:11;13.18;;;4.50;;
80823;SDS011;70538;59.122;37.876;2023-06-24T02:28:40;9.63;;;4.35;;
80823;SDS011;70538;59.122;37.876;2023-06-24T02:31:10;12.65;;;4.55;;
80823;SDS011;70538;59.122;37.876;2023-06-24T02:33:40;12.98;;;4.40;;
80823;SDS011;70538;59.122;37.876;2023-06-24T02:36:09;8.87;;;3.70;;
80823;SDS011;70538;59.122;37.876;2023-06-24T02:38:39;10.90;;;4.00;;
80823;SDS011;70538;59.122;37.876;2023-06-24T02:41:07;9.60;;;4.20;;
80823;SDS011;70538;59.122;37.876;2023-06-24T02:43:36;8.40;;;3.65;;
80823;SDS011;70538;59.122;37.876;2023-06-24T02:46:05;10.30;;;4.15;;
80823;SDS011;70538;59.122;37.876;2023-06-24T02:48:36;9.93;;;3.77;;
80823;SDS011;70538;59.122;37.876;2023-06-24T02:51:07;9.35;;;3.92;;
80823;SDS011;70538;59.122;37.876;2023-06-24T02:53:39;9.90;;;3.90;;
80823;SDS011;70538;59.122;37.876;2023-06-24T02:56:08;8.45;;;4.35;;
80823;SDS011;70538;59.122;37.876;2023-06-24T02:58:40;11.52;;;4.18;;
80823;SDS011;70538;59.122;37.876;2023-06-24T03:01:10;9.97;;;4.10;;
80823;SDS011;70538;59.122;37.876;2023-06-24T03:03:41;10.50;;;3.70;;
80823;SDS011;70538;59.122;37.876;2023-06-24T03:06:10;11.15;;;4.28;;
80823;SDS011;70538;59.122;37.876;2023-06-24T03:08:40;11.20;;;4.55;;
80823;SDS011;70538;59.122;37.876;2023-06-24T03:11:11;10.65;;;4.70;;
80823;SDS011;70538;59.122;37.876;2023-06-24T03:13:42;10.60;;;4.53;;
80823;SDS011;70538;59.122;37.876;2023-06-24T03:16:11;9.55;;;4.47;;
80823;SDS011;70538;59.122;37.876;2023-06-24T03:18:43;11.85;;;4.55;;
80823;SDS011;70538;59.122;37.876;2023-06-24T03:21:11;12.02;;;4.47;;
80823;SDS011;70538;59.122;37.876;2023-06-24T03:23:40;9.18;;;4.28;;
80823;SDS011;70538;59.122;37.876;2023-06-24T03:26:08;9.63;;;4.80;;
80823;SDS011;70538;59.122;37.876;2023-06-24T03:28:37;11.70;;;4.75;;
80823;SDS011;70538;59.122;37.876;2023-06-24T03:31:06;9.20;;;4.38;;
80823;SDS011;70538;59.122;37.876;2023-06-24T03:33:35;10.75;;;4.22;;
80823;SDS011;70538;59.122;37.876;2023-06-24T03:36:03;9.15;;;4.32;;
80823;SDS011;70538;59.122;37.876;2023-06-24T03:38:31;12.03;;;4.43;;
80823;SDS011;70538;59.122;37.876;2023-06-24T03:41:00;11.43;;;4.20;;
80823;SDS011;70538;59.122;37.876;2023-06-24T03:43:28;11.10;;;4.60;;
80823;SDS011;70538;59.122;37.876;2023-06-24T03:45:57;10.93;;;4.43;;
80823;SDS011;70538;59.122;37.876;2023-06-24T03:48:25;11.70;;;4.60;;
80823;SDS011;70538;59.122;37.876;2023-06-24T03:50:54;11.20;;;3.97;;
80823;SDS011;70538;59.122;37.876;2023-06-24T03:53:22;13.60;;;4.32;;
80823;SDS011;70538;59.122;37.876;2023-06-24T03:55:51;9.57;;;4.30;;
80823;SDS011;70538;59.122;37.876;2023-06-24T03:58:19;12.88;;;4.10;;
80823;SDS011;70538;59.122;37.876;2023-06-24T04:00:49;9.23;;;4.13;;
80823;SDS011;70538;59.122;37.876;2023-06-24T04:03:17;10.47;;;4.50;;
80823;SDS011;70538;59.122;37.876;2023-06-24T04:05:46;12.77;;;4.90;;
80823;SDS011;70538;59.122;37.876;2023-06-24T04:08:15;13.07;;;4.40;;
80823;SDS011;70538;59.122;37.876;2023-06-24T04:10:44;10.30;;;4.70;;
80823;SDS011;70538;59.122;37.876;2023-06-24T04:13:13;9.77;;;4.82;;
80823;SDS011;70538;59.122;37.876;2023-06-24T04:15:41;10.33;;;4.67;;
80823;SDS011;70538;59.122;37.876;2023-06-24T04:18:10;11.48;;;4.47;;
80823;SDS011;70538;59.122;37.876;2023-06-24T04:20:38;10.27;;;4.40;;
80823;SDS011;70538;59.122;37.876;2023-06-24T04:23:07;11.60;;;5.03;;
80823;SDS011;70538;59.122;37.876;2023-06-24T04:25:38;15.40;;;6.65;;
80823;SDS011;70538;59.122;37.876;2023-06-24T04:28:06;12.03;;;5.37;;
80823;SDS011;70538;59.122;37.876;2023-06-24T04:30:34;12.70;;;5.30;;
80823;SDS011;70538;59.122;37.876;2023-06-24T04:33:03;11.48;;;5.57;;
80823;SDS011;70538;59.122;37.876;2023-06-24T04:35:32;14.80;;;6.10;;
80823;SDS011;70538;59.122;37.876;2023-06-24T04:38:01;13.88;;;5.70;;
80823;SDS011;70538;59.122;37.876;2023-06-24T04:40:30;12.07;;;5.67;;
80823;SDS011;70538;59.122;37.876;2023-06-24T04:42:58;13.88;;;5.88;;
80823;SDS011;70538;59.122;37.876;2023-06-24T04:45:26;10.90;;;5.60;;
80823;SDS011;70538;59.122;37.876;2023-06-24T04:47:54;10.75;;;5.20;;
80823;SDS011;70538;59.122;37.876;2023-06-24T04:50:23;13.80;;;5.65;;
80823;SDS011;70538;59.122;37.876;2023-06-24T04:52:54;12.93;;;4.90;;
80823;SDS011;70538;59.122;37.876;2023-06-24T04:55:24;12.48;;;5.22;;
80823;SDS011;70538;59.122;37.876;2023-06-24T04:57:54;10.95;;;5.97;;
80823;SDS011;70538;59.122;37.876;2023-06-24T05:00:23;17.48;;;5.72;;
80823;SDS011;70538;59.122;37.876;2023-06-24T05:02:52;10.75;;;5.65;;
80823;SDS011;70538;59.122;37.876;2023-06-24T05:05:25;14.50;;;6.33;;
80823;SDS011;70538;59.122;37.876;2023-06-24T05:07:53;14.45;;;6.10;;
80823;SDS011;70538;59.122;37.876;2023-06-24T05:10:22;18.17;;;5.80;;
80823;SDS011;70538;59.122;37.876;2023-06-24T05:12:51;14.80;;;4.97;;
80823;SDS011;70538;59.122;37.876;2023-06-24T05:15:19;18.58;;;6.60;;
80823;SDS011;70538;59.122;37.876;2023-06-24T05:17:47;9.27;;;4.83;;
80823;SDS011;70538;59.122;37.876;2023-06-24T05:20:19;10.18;;;4.57;;
80823;SDS011;70538;59.122;37.876;2023-06-24T05:22:48;12.38;;;4.60;;
80823;SDS011;70538;59.122;37.876;2023-06-24T05:25:16;9.57;;;4.85;;
80823;SDS011;70538;59.122;37.876;2023-06-24T05:27:44;11.88;;;4.90;;
80823;SDS011;70538;59.122;37.876;2023-06-24T05:30:12;9.20;;;4.90;;
80823;SDS011;70538;59.122;37.876;2023-06-24T05:32:42;11.95;;;4.88;;
80823;SDS011;70538;59.122;37.876;2023-06-24T05:35:10;12.13;;;5.00;;
80823;SDS011;70538;59.122;37.876;2023-06-24T05:37:38;14.18;;;4.70;;
80823;SDS011;70538;59.122;37.876;2023-06-24T05:40:07;9.40;;;4.60;;
80823;SDS011;70538;59.122;37.876;2023-06-24T05:42:37;11.27;;;4.50;;
80823;SDS011;70538;59.122;37.876;2023-06-24T05:45:05;10.88;;;4.65;;
80823;SDS011;70538;59.122;37.876;2023-06-24T05:47:34;10.88;;;4.82;;
80823;SDS011;70538;59.122;37.876;2023-06-24T05:50:02;13.48;;;5.00;;
80823;SDS011;70538;59.122;37.876;2023-06-24T05:52:31;12.73;;;4.25;;
80823;SDS011;70538;59.122;37.876;2023-06-24T05:54:59;11.53;;;4.50;;
80823;SDS011;70538;59.122;37.876;2023-06-24T05:57:27;13.15;;;4.88;;
80823;SDS011;70538;59.122;37.876;2023-06-24T05:59:56;12.07;;;4.78;;
80823;SDS011;70538;59.122;37.876;2023-06-24T06:02:24;10.52;;;4.18;;
80823;SDS011;70538;59.122;37.876;2023-06-24T06:04:52;9.77;;;4.05;;
80823;SDS011;70538;59.122;37.876;2023-06-24T06:07:26;11.53;;;4.10;;
80823;SDS011;70538;59.122;37.876;2023-06-24T06:09:55;12.52;;;4.63;;
80823;SDS011;70538;59.122;37.876;2023-06-24T06:12:23;7.90;;;3.55;;
80823;SDS011;70538;59.122;37.876;2023-06-24T06:14:52;7.85;;;3.70;;
80823;SDS011;70538;59.122;37.876;2023-06-24T06:17:20;9.10;;;4.10;;
80823;SDS011;70538;59.122;37.876;2023-06-24T06:19:49;11.37;;;4.37;;
80823;SDS011;70538;59.122;37.876;2023-06-24T06:22:19;9.38;;;4.25;;
80823;SDS011;70538;59.122;37.876;2023-06-24T06:24:47;9.43;;;4.80;;
80823;SDS011;70538;59.122;37.876;2023-06-24T06:27:15;10.98;;;4.47;;
80823;SDS011;70538;59.122;37.876;2023-06-24T06:29:44;8.18;;;4.28;;
80823;SDS011;70538;59.122;37.876;2023-06-24T06:32:12;10.33;;;4.40;;
80823;SDS011;70538;59.122;37.876;2023-06-24T06:34:40;10.98;;;4.38;;
80823;SDS011;70538;59.122;37.876;2023-06-24T06:37:08;12.13;;;4.70;;
80823;SDS011;70538;59.122;37.876;2023-06-24T06:39:36;8.30;;;3.80;;
80823;SDS011;70538;59.122;37.876;2023-06-24T06:42:08;8.20;;;4.30;;
80823;SDS011;70538;59.122;37.876;2023-06-24T06:44:41;9.33;;;4.30;;
80823;SDS011;70538;59.122;37.876;2023-06-24T06:47:10;10.02;;;4.55;;
80823;SDS011;70538;59.122;37.876;2023-06-24T06:49:40;9.40;;;4.28;;
80823;SDS011;70538;59.122;37.876;2023-06-24T06:52:08;12.18;;;4.85;;
80823;SDS011;70538;59.122;37.876;2023-06-24T06:54:36;9.07;;;3.70;;
80823;SDS011;70538;59.122;37.876;2023-06-24T06:57:04;10.83;;;4.73;;
80823;SDS011;70538;59.122;37.876;2023-06-24T06:59:33;8.82;;;4.20;;
80823;SDS011;70538;59.122;37.876;2023-06-24T07:02:01;9.73;;;4.40;;
80823;SDS011;70538;59.122;37.876;2023-06-24T07:04:30;10.63;;;4.68;;
80823;SDS011;70538;59.122;37.876;2023-06-24T07:06:58;8.57;;;3.80;;
80823;SDS011;70538;59.122;37.876;2023-06-24T07:09:28;9.03;;;3.73;;
80823;SDS011;70538;59.122;37.876;2023-06-24T07:11:56;8.30;;;4.10;;
80823;SDS011;70538;59.122;37.876;2023-06-24T07:14:24;8.43;;;3.92;;
80823;SDS011;70538;59.122;37.876;2023-06-24T07:16:52;12.25;;;4.50;;
80823;SDS011;70538;59.122;37.876;2023-06-24T07:19:21;10.63;;;4.82;;
80823;SDS011;70538;59.122;37.876;2023-06-24T07:21:49;12.13;;;3.90;;
80823;SDS011;70538;59.122;37.876;2023-06-24T07:24:17;7.70;;;3.60;;
80823;SDS011;70538;59.122;37.876;2023-06-24T07:26:45;8.60;;;4.07;;
80823;SDS011;70538;59.122;37.876;2023-06-24T07:29:14;10.82;;;4.20;;
80823;SDS011;70538;59.122;37.876;2023-06-24T07:31:43;9.80;;;4.40;;
80823;SDS011;70538;59.122;37.876;2023-06-24T07:34:12;9.10;;;4.20;;
80823;SDS011;70538;59.122;37.876;2023-06-24T07:36:40;7.82;;;3.70;;
80823;SDS011;70538;59.122;37.876;2023-06-24T07:39:08;9.20;;;3.92;;
80823;SDS011;70538;59.122;37.876;2023-06-24T07:41:39;9.45;;;4.40;;
80823;SDS011;70538;59.122;37.876;2023-06-24T07:44:08;8.55;;;4.47;;
80823;SDS011;70538;59.122;37.876;2023-06-24T07:46:36;9.03;;;4.50;;
80823;SDS011;70538;59.122;37.876;2023-06-24T07:49:06;8.82;;;3.92;;
80823;SDS011;70538;59.122;37.876;2023-06-24T07:51:34;13.55;;;4.13;;
80823;SDS011;70538;59.122;37.876;2023-06-24T07:54:06;8.05;;;3.65;;
80823;SDS011;70538;59.122;37.876;2023-06-24T07:56:34;9.90;;;5.00;;
80823;SDS011;70538;59.122;37.876;2023-06-24T07:59:02;8.17;;;4.20;;
80823;SDS011;70538;59.122;37.876;2023-06-24T08:01:31;11.02;;;4.22;;
80823;SDS011;70538;59.122;37.876;2023-06-24T08:03:59;7.90;;;3.90;;
80823;SDS011;70538;59.122;37.876;2023-06-24T08:06:28;9.15;;;4.07;;
80823;SDS011;70538;59.122;37.876;2023-06-24T08:08:56;10.38;;;4.20;;
80823;SDS011;70538;59.122;37.876;2023-06-24T08:11:24;8.57;;;4.40;;
80823;SDS011;70538;59.122;37.876;2023-06-24T08:13:52;10.70;;;4.32;;
80823;SDS011;70538;59.122;37.876;2023-06-24T08:16:21;8.80;;;4.35;;
80823;SDS011;70538;59.122;37.876;2023-06-24T08:18:49;9.05;;;4.05;;
80823;SDS011;70538;59.122;37.876;2023-06-24T08:21:18;10.07;;;4.32;;
80823;SDS011;70538;59.122;37.876;2023-06-24T08:23:47;9.27;;;4.43;;
80823;SDS011;70538;59.122;37.876;2023-06-24T08:26:19;8.13;;;3.90;;
80823;SDS011;70538;59.122;37.876;2023-06-24T08:28:48;8.00;;;3.88;;
80823;SDS011;70538;59.122;37.876;2023-06-24T08:31:17;14.00;;;7.85;;
80823;SDS011;70538;59.122;37.876;2023-06-24T08:33:48;9.70;;;4.47;;
80823;SDS011;70538;59.122;37.876;2023-06-24T08:36:23;8.87;;;4.23;;
80823;SDS011;70538;59.122;37.876;2023-06-24T08:38:56;9.70;;;3.97;;
80823;SDS011;70538;59.122;37.876;2023-06-24T08:41:25;8.32;;;4.45;;
80823;SDS011;70538;59.122;37.876;2023-06-24T08:43:53;7.97;;;4.45;;
80823;SDS011;70538;59.122;37.876;2023-06-24T08:46:23;9.02;;;4.13;;
80823;SDS011;70538;59.122;37.876;2023-06-24T08:48:54;8.57;;;4.33;;
80823;SDS011;70538;59.122;37.876;2023-06-24T08:51:29;8.48;;;4.13;;
80823;SDS011;70538;59.122;37.876;2023-06-24T08:54:04;8.25;;;4.45;;
80823;SDS011;70538;59.122;37.876;2023-06-24T08:56:37;10.75;;;4.50;;
80823;SDS011;70538;59.122;37.876;2023-06-24T08:59:06;7.93;;;4.13;;
80823;SDS011;70538;59.122;37.876;2023-06-24T09:01:36;8.97;;;4.40;;
80823;SDS011;70538;59.122;37.876;2023-06-24T09:04:06;8.50;;;4.20;;
80823;SDS011;70538;59.122;37.876;2023-06-24T09:06:34;9.85;;;4.40;;
80823;SDS011;70538;59.122;37.876;2023-06-24T09:09:03;7.78;;;4.30;;
80823;SDS011;70538;59.122;37.876;2023-06-24T09:11:32;12.27;;;4.63;;
80823;SDS011;70538;59.122;37.876;2023-06-24T09:14:00;9.30;;;4.47;;
80823;SDS011;70538;59.122;37.876;2023-06-24T09:16:29;9.52;;;4.45;;
80823;SDS011;70538;59.122;37.876;2023-06-24T09:18:57;7.40;;;4.03;;
80823;SDS011;70538;59.122;37.876;2023-06-24T09:21:27;10.40;;;4.28;;
80823;SDS011;70538;59.122;37.876;2023-06-24T09:23:58;11.27;;;4.53;;
80823;SDS011;70538;59.122;37.876;2023-06-24T09:26:26;8.00;;;4.10;;
80823;SDS011;70538;59.122;37.876;2023-06-24T09:28:57;8.38;;;4.40;;
80823;SDS011;70538;59.122;37.876;2023-06-24T09:31:25;8.43;;;4.38;;
80823;SDS011;70538;59.122;37.876;2023-06-24T09:33:57;10.13;;;4.30;;
80823;SDS011;70538;59.122;37.876;2023-06-24T09:36:26;11.15;;;4.47;;
80823;SDS011;70538;59.122;37.876;2023-06-24T09:38:56;10.27;;;4.23;;
80823;SDS011;70538;59.122;37.876;2023-06-24T09:41:50;7.97;;;4.07;;
80823;SDS011;70538;59.122;37.876;2023-06-24T09:44:19;8.35;;;4.50;;
80823;SDS011;70538;59.122;37.876;2023-06-24T09:46:50;10.15;;;4.60;;
80823;SDS011;70538;59.122;37.876;2023-06-24T09:49:19;8.77;;;4.70;;
80823;SDS011;70538;59.122;37.876;2023-06-24T09:51:49;8.80;;;4.40;;
80823;SDS011;70538;59.122;37.876;2023-06-24T09:54:26;8.07;;;4.45;;
80823;SDS011;70538;59.122;37.876;2023-06-24T09:57:02;10.07;;;5.63;;
80823;SDS011;70538;59.122;37.876;2023-06-24T09:59:31;11.07;;;4.60;;
80823;SDS011;70538;59.122;37.876;2023-06-24T10:02:02;9.63;;;4.82;;
80823;SDS011;70538;59.122;37.876;2023-06-24T10:04:31;9.53;;;4.63;;
80823;SDS011;70538;59.122;37.876;2023-06-24T10:07:00;8.20;;;4.28;;
80823;SDS011;70538;59.122;37.876;2023-06-24T10:09:30;10.95;;;5.03;;
80823;SDS011;70538;59.122;37.876;2023-06-24T10:11:58;10.85;;;4.70;;
80823;SDS011;70538;59.122;37.876;2023-06-24T10:14:28;8.65;;;4.60;;
80823;SDS011;70538;59.122;37.876;2023-06-24T10:17:05;10.67;;;4.80;;
80823;SDS011;70538;59.122;37.876;2023-06-24T10:19:40;9.82;;;4.78;;
80823;SDS011;70538;59.122;37.876;2023-06-24T10:22:10;9.82;;;5.13;;
80823;SDS011;70538;59.122;37.876;2023-06-24T10:24:39;12.30;;;4.57;;
80823;SDS011;70538;59.122;37.876;2023-06-24T10:27:16;11.48;;;5.20;;
80823;SDS011;70538;59.122;37.876;2023-06-24T10:29:46;12.43;;;5.07;;
80823;SDS011;70538;59.122;37.876;2023-06-24T10:32:19;10.57;;;5.15;;
80823;SDS011;70538;59.122;37.876;2023-06-24T10:34:56;12.20;;;6.10;;
80823;SDS011;70538;59.122;37.876;2023-06-24T10:37:32;15.93;;;6.20;;
80823;SDS011;70538;59.122;37.876;2023-06-24T10:40:01;22.35;;;6.38;;
80823;SDS011;70538;59.122;37.876;2023-06-24T10:42:31;14.00;;;5.80;;
80823;SDS011;70538;59.122;37.876;2023-06-24T10:47:37;17.77;;;6.90;;
80823;SDS011;70538;59.122;37.876;2023-06-24T10:50:07;17.50;;;5.85;;
80823;SDS011;70538;59.122;37.876;2023-06-24T10:52:47;17.60;;;7.10;;
80823;SDS011;70538;59.122;37.876;2023-06-24T10:55:17;21.07;;;7.33;;
80823;SDS011;70538;59.122;37.876;2023-06-24T10:57:46;16.15;;;6.93;;
80823;SDS011;70538;59.122;37.876;2023-06-24T11:00:14;18.42;;;7.28;;
80823;SDS011;70538;59.122;37.876;2023-06-24T11:02:46;19.17;;;6.78;;
80823;SDS011;70538;59.122;37.876;2023-06-24T11:05:14;13.30;;;6.28;;
80823;SDS011;70538;59.122;37.876;2023-06-24T11:07:42;10.87;;;5.53;;
80823;SDS011;70538;59.122;37.876;2023-06-24T11:10:11;11.88;;;5.72;;
80823;SDS011;70538;59.122;37.876;2023-06-24T11:12:41;13.45;;;5.72;;
80823;SDS011;70538;59.122;37.876;2023-06-24T11:15:11;13.60;;;5.85;;
80823;SDS011;70538;59.122;37.876;2023-06-24T11:17:41;10.70;;;5.85;;
80823;SDS011;70538;59.122;37.876;2023-06-24T11:20:10;14.50;;;6.30;;
80823;SDS011;70538;59.122;37.876;2023-06-24T11:22:40;13.38;;;5.28;;
80823;SDS011;70538;59.122;37.876;2023-06-24T11:25:16;15.60;;;6.30;;
80823;SDS011;70538;59.122;37.876;2023-06-24T11:27:46;11.80;;;5.80;;
80823;SDS011;70538;59.122;37.876;2023-06-24T11:30:15;13.68;;;6.28;;
80823;SDS011;70538;59.122;37.876;2023-06-24T11:32:44;11.80;;;5.30;;
80823;SDS011;70538;59.122;37.876;2023-06-24T11:35:13;11.23;;;6.00;;
80823;SDS011;70538;59.122;37.876;2023-06-24T11:37:46;13.00;;;5.93;;
80823;SDS011;70538;59.122;37.876;2023-06-24T11:40:16;15.73;;;7.05;;
80823;SDS011;70538;59.122;37.876;2023-06-24T11:42:48;13.05;;;6.53;;
80823;SDS011;70538;59.122;37.876;2023-06-24T11:45:22;12.57;;;6.13;;
80823;SDS011;70538;59.122;37.876;2023-06-24T11:47:52;13.25;;;6.45;;
80823;SDS011;70538;59.122;37.876;2023-06-24T11:50:25;13.70;;;6.55;;
80823;SDS011;70538;59.122;37.876;2023-06-24T11:52:54;16.92;;;6.38;;
80823;SDS011;70538;59.122;37.876;2023-06-24T11:55:23;12.55;;;5.70;;
80823;SDS011;70538;59.122;37.876;2023-06-24T11:57:54;13.13;;;6.17;;
80823;SDS011;70538;59.122;37.876;2023-06-24T12:00:30;20.80;;;7.68;;
80823;SDS011;70538;59.122;37.876;2023-06-24T12:03:04;14.48;;;7.00;;
80823;SDS011;70538;59.122;37.876;2023-06-24T12:05:38;24.38;;;8.50;;
80823;SDS011;70538;59.122;37.876;2023-06-24T12:08:13;17.35;;;7.40;;
80823;SDS011;70538;59.122;37.876;2023-06-24T12:10:44;19.63;;;8.03;;
80823;SDS011;70538;59.122;37.876;2023-06-24T12:13:13;20.73;;;8.13;;
80823;SDS011;70538;59.122;37.876;2023-06-24T12:15:41;19.65;;;8.43;;
80823;SDS011;70538;59.122;37.876;2023-06-24T12:18:11;16.65;;;7.63;;
80823;SDS011;70538;59.122;37.876;2023-06-24T12:20:49;19.42;;;7.30;;
80823;SDS011;70538;59.122;37.876;2023-06-24T12:23:17;17.33;;;7.70;;
80823;SDS011;70538;59.122;37.876;2023-06-24T12:25:45;14.93;;;8.10;;
80823;SDS011;70538;59.122;37.876;2023-06-24T12:28:13;19.63;;;9.27;;
80823;SDS011;70538;59.122;37.876;2023-06-24T12:30:42;14.55;;;8.38;;
80823;SDS011;70538;59.122;37.876;2023-06-24T12:33:11;12.95;;;7.30;;
80823;SDS011;70538;59.122;37.876;2023-06-24T12:35:42;21.53;;;8.47;;
80823;SDS011;70538;59.122;37.876;2023-06-24T12:38:11;17.52;;;7.25;;
80823;SDS011;70538;59.122;37.876;2023-06-24T12:40:39;17.75;;;7.65;;
80823;SDS011;70538;59.122;37.876;2023-06-24T12:43:07;13.35;;;7.03;;
80823;SDS011;70538;59.122;37.876;2023-06-24T12:45:36;14.95;;;7.10;;
80823;SDS011;70538;59.122;37.876;2023-06-24T12:48:05;17.73;;;7.83;;
80823;SDS011;70538;59.122;37.876;2023-06-24T12:50:34;14.73;;;7.70;;
80823;SDS011;70538;59.122;37.876;2023-06-24T12:53:03;12.15;;;7.30;;
80823;SDS011;70538;59.122;37.876;2023-06-24T12:55:32;18.73;;;8.93;;
80823;SDS011;70538;59.122;37.876;2023-06-24T12:58:00;16.23;;;8.30;;
80823;SDS011;70538;59.122;37.876;2023-06-24T13:00:28;16.23;;;7.73;;
80823;SDS011;70538;59.122;37.876;2023-06-24T13:02:57;14.52;;;7.65;;
80823;SDS011;70538;59.122;37.876;2023-06-24T13:05:27;13.50;;;6.65;;
80823;SDS011;70538;59.122;37.876;2023-06-24T13:07:56;14.27;;;4.88;;
80823;SDS011;70538;59.122;37.876;2023-06-24T13:10:26;11.73;;;5.50;;
80823;SDS011;70538;59.122;37.876;2023-06-24T13:12:54;11.70;;;5.33;;
80823;SDS011;70538;59.122;37.876;2023-06-24T13:15:23;21.73;;;6.70;;
80823;SDS011;70538;59.122;37.876;2023-06-24T13:17:52;14.55;;;7.10;;
80823;SDS011;70538;59.122;37.876;2023-06-24T13:20:20;18.23;;;7.15;;
80823;SDS011;70538;59.122;37.876;2023-06-24T13:22:49;15.07;;;6.95;;
80823;SDS011;70538;59.122;37.876;2023-06-24T13:25:18;13.33;;;7.27;;
80823;SDS011;70538;59.122;37.876;2023-06-24T13:27:46;14.13;;;6.93;;
80823;SDS011;70538;59.122;37.876;2023-06-24T13:30:14;17.00;;;7.13;;
80823;SDS011;70538;59.122;37.876;2023-06-24T13:32:43;14.90;;;5.95;;
80823;SDS011;70538;59.122;37.876;2023-06-24T13:35:12;21.05;;;8.07;;
80823;SDS011;70538;59.122;37.876;2023-06-24T13:37:41;31.20;;;9.17;;
80823;SDS011;70538;59.122;37.876;2023-06-24T13:40:11;25.05;;;7.72;;
80823;SDS011;70538;59.122;37.876;2023-06-24T13:42:55;17.10;;;7.10;;
80823;SDS011;70538;59.122;37.876;2023-06-24T13:45:23;16.58;;;7.45;;
80823;SDS011;70538;59.122;37.876;2023-06-24T13:47:52;21.20;;;7.40;;
80823;SDS011;70538;59.122;37.876;2023-06-24T13:50:20;25.63;;;9.13;;
80823;SDS011;70538;59.122;37.876;2023-06-24T13:52:49;16.20;;;6.63;;
80823;SDS011;70538;59.122;37.876;2023-06-24T13:55:17;24.02;;;8.65;;
80823;SDS011;70538;59.122;37.876;2023-06-24T13:57:45;29.33;;;6.80;;
80823;SDS011;70538;59.122;37.876;2023-06-24T14:00:14;17.02;;;6.25;;
80823;SDS011;70538;59.122;37.876;2023-06-24T14:02:43;21.30;;;6.33;;
80823;SDS011;70538;59.122;37.876;2023-06-24T14:05:11;17.60;;;6.88;;
80823;SDS011;70538;59.122;37.876;2023-06-24T14:07:42;20.70;;;7.13;;
80823;SDS011;70538;59.122;37.876;2023-06-24T14:10:10;23.58;;;7.68;;
80823;SDS011;70538;59.122;37.876;2023-06-24T14:12:39;21.25;;;7.72;;
80823;SDS011;70538;59.122;37.876;2023-06-24T14:15:10;17.77;;;7.40;;
80823;SDS011;70538;59.122;37.876;2023-06-24T14:17:38;18.65;;;8.93;;
80823;SDS011;70538;59.122;37.876;2023-06-24T14:20:07;15.95;;;8.38;;
80823;SDS011;70538;59.122;37.876;2023-06-24T14:22:35;21.60;;;7.40;;
80823;SDS011;70538;59.122;37.876;2023-06-24T14:25:05;19.90;;;7.90;;
80823;SDS011;70538;59.122;37.876;2023-06-24T14:27:34;22.33;;;7.87;;
80823;SDS011;70538;59.122;37.876;2023-06-24T14:30:02;19.42;;;9.27;;
80823;SDS011;70538;59.122;37.876;2023-06-24T14:32:32;19.83;;;8.98;;
80823;SDS011;70538;59.122;37.876;2023-06-24T14:35:00;14.63;;;7.47;;
80823;SDS011;70538;59.122;37.876;2023-06-24T14:37:30;15.10;;;7.72;;
80823;SDS011;70538;59.122;37.876;2023-06-24T14:39:58;18.47;;;6.90;;
80823;SDS011;70538;59.122;37.876;2023-06-24T14:42:26;19.90;;;8.13;;
80823;SDS011;70538;59.122;37.876;2023-06-24T14:44:54;17.65;;;8.60;;
80823;SDS011;70538;59.122;37.876;2023-06-24T14:47:23;14.57;;;7.03;;
80823;SDS011;70538;59.122;37.876;2023-06-24T14:49:51;15.40;;;7.50;;
80823;SDS011;70538;59.122;37.876;2023-06-24T14:52:19;14.73;;;7.87;;
80823;SDS011;70538;59.122;37.876;2023-06-24T14:54:48;14.05;;;8.23;;